Stoneville, North Carolina
Current Conditions -  °F | °C
As of 7:55 PM on Saturday 25 Oct 2014 (Local Time) from KSIF Reporting Station
Clear Clear  
Wind Chill: 62°   Ceiling: Unl
Heat Index: 62°   Visibility: 10mi
Dew Point: 41°   Wind: 3mph
Humidity: 47%   Direction: 270°W
Pressure: 29.91"   Gusts: NA
Location:  36.47°N, 79.91°W
Report Text: KSIF 252355Z AUTO 27003KT 10SM CLR 17/05 A2991 RMK AO2 T01670052 10227 20125
Loading
Personal Weather Stations






























Interactive Weather Map
Tropical Storm Tracking
New forecast layout! Learn more

10-Day Weather Forecast

Advertisements
Track Severe Weather on mobile